Time;durP1;ratioP1;P1;durP2;ratioP2;P2;SDS_P1;SDS_P2;PMS_P1;PMS_P2;Temp;Humidity;BMP_temperature;BMP_pressure;BME280_temperature;BME280_humidity;BME280_pressure;Samples;Min_cycle;Max_cycle;Signal;HPM_P1;HPM_P2
2022/11/18 00:01:53;;;;;;;16.63;14.85;;;;;;;;;;4786414;29;20058;-76
2022/11/18 00:04:21;;;;;;;17.75;14.52;;;;;;;;;;4796031;29;20137;-75
2022/11/18 00:06:49;;;;;;;16.80;14.95;;;;;;;;;;4798915;29;20062;-76
2022/11/18 00:09:16;;;;;;;17.42;14.55;;;;;;;;;;4821511;29;20114;-76
2022/11/18 00:14:30;;;;;;;17.25;15.45;;;;;;;;;;4822534;29;20125;-75
2022/11/18 00:17:00;;;;;;;16.45;14.70;;;;;;;;;;4822738;29;20047;-76
2022/11/18 00:19:30;;;;;;;18.58;15.38;;;;;;;;;;4824332;29;20054;-76
2022/11/18 00:21:59;;;;;;;16.35;14.20;;;;;;;;;;4804656;29;20039;-75
2022/11/18 00:24:26;;;;;;;16.23;14.32;;;;;;;;;;4801094;29;20119;-75
2022/11/18 00:26:54;;;;;;;17.35;14.13;;;;;;;;;;4804282;29;20061;-76
2022/11/18 00:29:22;;;;;;;17.45;14.88;;;;;;;;;;4799828;29;20461;-76
2022/11/18 00:31:49;;;;;;;17.05;14.73;;;;;;;;;;4819977;29;20078;-76
2022/11/18 00:34:17;;;;;;;19.77;14.13;;;;;;;;;;4811686;29;20058;-76
2022/11/18 00:36:45;;;;;;;15.05;13.07;;;;;;;;;;4792953;29;20592;-76
2022/11/18 00:39:13;;;;;;;15.27;12.77;;;;;;;;;;4817752;29;20047;-76
2022/11/18 00:44:28;;;;;;;14.15;12.70;;;;;;;;;;4801362;29;20042;-76
2022/11/18 00:46:55;;;;;;;15.00;13.27;;;;;;;;;;4796142;29;20038;-75
2022/11/18 00:49:23;;;;;;;15.35;13.38;;;;;;;;;;4818805;29;20045;-75
2022/11/18 00:51:50;;;;;;;16.98;15.18;;;;;;;;;;4813210;29;20319;-75
2022/11/18 00:54:18;;;;;;;17.92;15.20;;;;;;;;;;4820155;29;20441;-75
2022/11/18 00:56:45;;;;;;;19.58;17.23;;;;;;;;;;4816816;29;20106;-75
2022/11/18 00:59:12;;;;;;;15.98;14.00;;;;;;;;;;4818976;29;20046;-75
2022/11/18 01:01:40;;;;;;;19.65;16.38;;;;;;;;;;4818324;29;20038;-75
2022/11/18 01:04:07;;;;;;;19.55;14.93;;;;;;;;;;4819349;29;20046;-75
2022/11/18 01:06:35;;;;;;;22.50;17.20;;;;;;;;;;4814076;29;20050;-75
2022/11/18 01:09:02;;;;;;;19.65;14.90;;;;;;;;;;4827227;29;20673;-75
2022/11/18 01:14:15;;;;;;;19.02;14.52;;;;;;;;;;4794953;29;20042;-76
2022/11/18 01:16:43;;;;;;;17.35;15.15;;;;;;;;;;4811072;29;20057;-76
2022/11/18 01:19:10;;;;;;;18.08;15.52;;;;;;;;;;4824729;29;20050;-75
2022/11/18 01:21:38;;;;;;;17.17;13.82;;;;;;;;;;4799076;29;20080;-75
2022/11/18 01:24:05;;;;;;;17.20;15.07;;;;;;;;;;4809436;29;20161;-75
2022/11/18 01:26:33;;;;;;;20.88;15.35;;;;;;;;;;4810800;29;20057;-75
2022/11/18 01:29:00;;;;;;;19.45;14.02;;;;;;;;;;4802341;29;20045;-75
2022/11/18 01:31:28;;;;;;;23.02;18.23;;;;;;;;;;4788575;29;20081;-75
2022/11/18 01:33:56;;;;;;;22.48;15.70;;;;;;;;;;4806661;29;20042;-75
2022/11/18 01:36:24;;;;;;;19.35;17.17;;;;;;;;;;4814472;29;20050;-74
2022/11/18 01:38:52;;;;;;;22.45;20.20;;;;;;;;;;4812865;29;20500;-73
2022/11/18 01:41:20;;;;;;;19.70;16.30;;;;;;;;;;4804251;29;20060;-75
2022/11/18 01:44:14;;;;;;;18.75;16.83;;;;;;;;;;4825653;29;20058;-75
2022/11/18 01:46:41;;;;;;;18.42;14.00;;;;;;;;;;4779732;29;20125;-76
2022/11/18 01:49:12;;;;;;;15.90;13.95;;;;;;;;;;4809053;29;20047;-75
2022/11/18 01:51:45;;;;;;;16.80;13.35;;;;;;;;;;4802257;29;20044;-75
2022/11/18 01:54:15;;;;;;;18.92;15.55;;;;;;;;;;4813039;29;20070;-75
2022/11/18 01:56:43;;;;;;;18.48;15.70;;;;;;;;;;4802536;29;20072;-75
2022/11/18 01:59:13;;;;;;;18.88;16.27;;;;;;;;;;4813223;29;20094;-76
2022/11/18 02:01:40;;;;;;;17.85;16.02;;;;;;;;;;4792351;29;20502;-75
2022/11/18 02:04:08;;;;;;;18.42;16.25;;;;;;;;;;4808726;29;20231;-75
2022/11/18 02:06:36;;;;;;;18.00;16.13;;;;;;;;;;4835008;29;21277;-77
2022/11/18 02:09:04;;;;;;;21.38;17.85;;;;;;;;;;4813712;29;20042;-75
2022/11/18 02:11:50;;;;;;;19.13;16.23;;;;;;;;;;4840703;29;20525;-75
2022/11/18 02:14:19;;;;;;;20.45;16.63;;;;;;;;;;4814548;29;20418;-76
2022/11/18 02:17:05;;;;;;;20.13;17.42;;;;;;;;;;4815453;29;20566;-75
2022/11/18 02:19:51;;;;;;;20.75;16.73;;;;;;;;;;4786526;29;20053;-75
2022/11/18 02:22:42;;;;;;;20.25;15.25;;;;;;;;;;4799527;29;20043;-74
2022/11/18 02:25:25;;;;;;;17.75;14.40;;;;;;;;;;4796573;29;20040;-74
2022/11/18 02:28:01;;;;;;;18.48;15.55;;;;;;;;;;4818929;29;20046;-75
2022/11/18 02:30:32;;;;;;;16.92;14.98;;;;;;;;;;4813887;29;20046;-74
2022/11/18 02:33:10;;;;;;;17.63;15.93;;;;;;;;;;4805123;29;20384;-75
2022/11/18 02:35:52;;;;;;;17.88;15.88;;;;;;;;;;4808825;29;20050;-74
2022/11/18 02:38:25;;;;;;;18.83;16.35;;;;;;;;;;4804319;29;20050;-74
2022/11/18 02:40:56;;;;;;;17.08;15.38;;;;;;;;;;4810768;29;20193;-74
2022/11/18 02:43:26;;;;;;;20.65;17.00;;;;;;;;;;4813034;29;20038;-75
2022/11/18 02:45:56;;;;;;;19.80;16.70;;;;;;;;;;4811495;29;20475;-75
2022/11/18 02:48:25;;;;;;;22.38;17.23;;;;;;;;;;4812951;29;20555;-75
2022/11/18 02:50:52;;;;;;;19.90;17.35;;;;;;;;;;4816583;29;20042;-75
2022/11/18 02:53:20;;;;;;;18.20;16.35;;;;;;;;;;4810960;29;20054;-75
2022/11/18 02:55:51;;;;;;;19.52;16.02;;;;;;;;;;4782853;29;20054;-75
2022/11/18 02:58:19;;;;;;;25.13;16.98;;;;;;;;;;4809165;29;20703;-75
2022/11/18 03:00:57;;;;;;;21.25;16.58;;;;;;;;;;4808690;24;21212;-72
2022/11/18 03:03:31;;;;;;;17.60;15.27;;;;;;;;;;4786759;29;20126;-72
2022/11/18 03:05:58;;;;;;;22.08;17.80;;;;;;;;;;4810936;29;20046;-72
2022/11/18 03:08:28;;;;;;;20.80;17.35;;;;;;;;;;4811939;29;20088;-72
2022/11/18 03:11:00;;;;;;;17.55;14.57;;;;;;;;;;4811741;29;20065;-73
2022/11/18 03:13:27;;;;;;;;;;;;;;;;;;4810649;29;20529;-73
2022/11/18 03:16:09;;;;;;;18.23;13.43;;;;;;;;;;4811348;29;19928;-73
2022/11/18 03:18:44;;;;;;;18.90;13.10;;;;;;;;;;4810593;29;20043;-73
2022/11/18 03:21:15;;;;;;;19.80;14.25;;;;;;;;;;4822051;29;20042;-73
2022/11/18 03:23:45;;;;;;;22.67;16.63;;;;;;;;;;4813658;29;20038;-72
2022/11/18 03:26:16;;;;;;;23.08;17.42;;;;;;;;;;4816328;29;20046;-72
2022/11/18 03:28:50;;;;;;;16.70;13.57;;;;;;;;;;4826000;29;20519;-73
2022/11/18 03:31:38;;;;;;;21.50;15.82;;;;;;;;;;4817479;29;20061;-73
2022/11/18 03:34:09;;;;;;;19.65;15.32;;;;;;;;;;4800091;29;20077;-73
2022/11/18 03:36:41;;;;;;;20.20;16.52;;;;;;;;;;4794777;29;20050;-72
2022/11/18 03:39:08;;;;;;;;;;;;;;;;;;4825335;29;20050;-73
2022/11/18 03:41:39;;;;;;;17.92;13.43;;;;;;;;;;4818995;29;20247;-73
2022/11/18 03:44:09;;;;;;;18.33;15.05;;;;;;;;;;4805098;29;20042;-73
2022/11/18 03:46:44;;;;;;;18.83;14.43;;;;;;;;;;4826314;29;20082;-73
2022/11/18 03:49:15;;;;;;;17.67;14.25;;;;;;;;;;4816718;29;20058;-73
2022/11/18 03:51:46;;;;;;;19.40;16.20;;;;;;;;;;4813205;29;20419;-73
2022/11/18 03:54:16;;;;;;;21.40;15.65;;;;;;;;;;4830468;29;20388;-73
2022/11/18 03:56:47;;;;;;;18.30;15.40;;;;;;;;;;4817604;29;20510;-73
2022/11/18 03:59:17;;;;;;;22.92;16.25;;;;;;;;;;4818130;29;20038;-73
2022/11/18 04:01:49;;;;;;;19.38;15.98;;;;;;;;;;4805613;29;20042;-73
2022/11/18 04:04:17;;;;;;;22.77;16.95;;;;;;;;;;4809411;29;20047;-73
2022/11/18 04:07:05;;;;;;;23.70;16.33;;;;;;;;;;4811830;29;20039;-73
2022/11/18 04:09:56;;;;;;;18.63;15.52;;;;;;;;;;4811535;29;20483;-73
2022/11/18 04:12:25;;;;;;;20.02;16.42;;;;;;;;;;4794354;29;20058;-72
2022/11/18 04:14:54;;;;;;;20.13;17.95;;;;;;;;;;4793624;29;20050;-72
2022/11/18 04:17:22;;;;;;;19.85;16.42;;;;;;;;;;4809719;29;20569;-71
2022/11/18 04:19:50;;;;;;;22.33;18.02;;;;;;;;;;4811157;29;20442;-71
2022/11/18 04:22:18;;;;;;;22.67;18.20;;;;;;;;;;4811836;29;20458;-72
2022/11/18 04:24:45;;;;;;;17.98;16.15;;;;;;;;;;4796977;29;20422;-71
2022/11/18 04:27:13;;;;;;;19.77;17.42;;;;;;;;;;4825858;29;20042;-72
2022/11/18 04:29:40;;;;;;;20.17;17.48;;;;;;;;;;4818381;29;20476;-71
2022/11/18 04:32:07;;;;;;;20.38;18.13;;;;;;;;;;4811494;29;20122;-72
2022/11/18 04:34:35;;;;;;;21.08;18.40;;;;;;;;;;4783173;29;20173;-71
2022/11/18 04:37:02;;;;;;;20.77;15.70;;;;;;;;;;4806878;29;20107;-72
2022/11/18 04:39:29;;;;;;;19.98;17.83;;;;;;;;;;4819114;29;20050;-71
2022/11/18 04:41:57;;;;;;;21.00;17.92;;;;;;;;;;4829726;29;20050;-71
2022/11/18 04:44:26;;;;;;;21.35;15.90;;;;;;;;;;4814853;29;20042;-71
2022/11/18 04:46:54;;;;;;;21.40;18.23;;;;;;;;;;4818758;29;20050;-71
2022/11/18 04:49:22;;;;;;;18.00;14.88;;;;;;;;;;4812565;29;20436;-71
2022/11/18 04:51:50;;;;;;;18.73;16.80;;;;;;;;;;4808930;29;20053;-72
2022/11/18 04:54:17;;;;;;;18.90;15.93;;;;;;;;;;4804023;29;20445;-71
2022/11/18 04:56:45;;;;;;;22.05;17.35;;;;;;;;;;4815878;29;20054;-71
2022/11/18 04:59:17;;;;;;;18.65;15.45;;;;;;;;;;4817631;29;20420;-71
2022/11/18 05:01:45;;;;;;;18.38;16.15;;;;;;;;;;4823621;29;20457;-72
2022/11/18 05:04:13;;;;;;;20.63;16.80;;;;;;;;;;4810247;29;20135;-72
2022/11/18 05:06:41;;;;;;;18.85;16.85;;;;;;;;;;4811315;29;20050;-72
2022/11/18 05:09:08;;;;;;;18.90;16.90;;;;;;;;;;4809278;29;20050;-72
2022/11/18 05:14:21;;;;;;;19.63;17.20;;;;;;;;;;4809946;29;20054;-72
2022/11/18 05:16:49;;;;;;;19.95;16.52;;;;;;;;;;4820313;29;20051;-70
2022/11/18 05:19:16;;;;;;;22.63;18.58;;;;;;;;;;4804745;29;20043;-71
2022/11/18 05:21:44;;;;;;;19.52;15.38;;;;;;;;;;4815809;29;20042;-72
2022/11/18 05:24:11;;;;;;;23.33;19.38;;;;;;;;;;4786470;29;20038;-72
2022/11/18 05:26:38;;;;;;;26.75;18.60;;;;;;;;;;4809347;29;20042;-72
2022/11/18 05:29:05;;;;;;;24.85;20.15;;;;;;;;;;4779709;29;20039;-71
2022/11/18 05:31:33;;;;;;;25.15;19.77;;;;;;;;;;4809222;29;20050;-71
2022/11/18 05:34:00;;;;;;;23.20;17.80;;;;;;;;;;4812669;29;20054;-71
2022/11/18 05:36:27;;;;;;;25.27;20.98;;;;;;;;;;4797242;29;20108;-71
2022/11/18 05:38:57;;;;;;;24.42;19.88;;;;;;;;;;4806256;29;20518;-71
2022/11/18 05:44:11;;;;;;;21.10;17.63;;;;;;;;;;4793648;29;20061;-72
2022/11/18 05:46:38;;;;;;;21.02;18.52;;;;;;;;;;4802726;29;20107;-72
2022/11/18 05:49:06;;;;;;;23.60;20.90;;;;;;;;;;4823054;29;20050;-72
2022/11/18 05:51:34;;;;;;;18.00;14.90;;;;;;;;;;4823859;29;20414;-70
2022/11/18 05:54:06;;;;;;;19.25;17.23;;;;;;;;;;4810807;29;20054;-71
2022/11/18 05:56:43;;;;;;;18.38;15.98;;;;;;;;;;4814215;29;20578;-71
2022/11/18 05:59:11;;;;;;;20.20;16.70;;;;;;;;;;4822243;29;20050;-71
2022/11/18 06:01:44;;;;;;;19.23;17.25;;;;;;;;;;4826105;29;20413;-71
2022/11/18 06:04:14;;;;;;;20.30;18.27;;;;;;;;;;4823544;29;20051;-71
2022/11/18 06:06:43;;;;;;;22.50;18.98;;;;;;;;;;4811537;29;20115;-70
2022/11/18 06:09:10;;;;;;;22.02;19.75;;;;;;;;;;4790001;29;20368;-71
2022/11/18 06:11:43;;;;;;;26.77;24.02;;;;;;;;;;4807103;29;20506;-71
2022/11/18 06:14:14;;;;;;;21.92;19.65;;;;;;;;;;4808555;29;20177;-70
2022/11/18 06:16:44;;;;;;;21.67;19.52;;;;;;;;;;4804955;29;20055;-71
2022/11/18 06:19:11;;;;;;;19.77;17.73;;;;;;;;;;4814187;29;20184;-70
2022/11/18 06:21:38;;;;;;;21.10;18.92;;;;;;;;;;4807008;29;20057;-70
2022/11/18 06:24:08;;;;;;;20.73;18.35;;;;;;;;;;4804897;29;20046;-70
2022/11/18 06:26:37;;;;;;;19.92;17.75;;;;;;;;;;4781528;29;20072;-70
2022/11/18 06:29:05;;;;;;;26.23;21.27;;;;;;;;;;4801971;29;20406;-70
2022/11/18 06:31:33;;;;;;;25.10;21.83;;;;;;;;;;4802022;29;20048;-70
2022/11/18 06:34:00;;;;;;;19.63;17.30;;;;;;;;;;4808040;29;20066;-70
2022/11/18 06:36:27;;;;;;;23.17;20.98;;;;;;;;;;4805594;29;20046;-69
2022/11/18 06:38:55;;;;;;;22.25;19.95;;;;;;;;;;4805363;29;20049;-69
2022/11/18 06:41:22;;;;;;;20.80;18.55;;;;;;;;;;4813613;29;20054;-69
2022/11/18 06:43:50;;;;;;;21.90;19.75;;;;;;;;;;4808790;29;20042;-70
2022/11/18 06:49:03;;;;;;;22.33;19.20;;;;;;;;;;4810203;29;20507;-71
2022/11/18 06:51:30;;;;;;;29.67;24.65;;;;;;;;;;4811609;29;20678;-70
2022/11/18 06:53:58;;;;;;;33.58;25.73;;;;;;;;;;4814149;29;20515;-70
2022/11/18 06:56:25;;;;;;;31.00;24.83;;;;;;;;;;4809512;29;20054;-70
2022/11/18 06:58:56;;;;;;;27.08;23.90;;;;;;;;;;4804337;29;20057;-70
2022/11/18 07:01:28;;;;;;;26.17;23.42;;;;;;;;;;4803406;29;20077;-70
2022/11/18 07:03:57;;;;;;;31.30;26.73;;;;;;;;;;4810446;29;20129;-71
2022/11/18 07:06:25;;;;;;;24.48;21.92;;;;;;;;;;4814250;29;20102;-70
2022/11/18 07:08:53;;;;;;;28.45;25.42;;;;;;;;;;4810725;29;20129;-70
2022/11/18 07:11:22;;;;;;;29.17;26.13;;;;;;;;;;4816293;29;20055;-70
2022/11/18 07:13:51;;;;;;;32.13;28.75;;;;;;;;;;4807525;29;20061;-67
2022/11/18 07:16:19;;;;;;;30.25;26.10;;;;;;;;;;4816534;29;20050;-70
2022/11/18 07:18:48;;;;;;;39.40;32.45;;;;;;;;;;4792665;29;20053;-70
2022/11/18 07:21:17;;;;;;;36.95;30.08;;;;;;;;;;4810034;29;20047;-70
2022/11/18 07:23:44;;;;;;;33.92;30.27;;;;;;;;;;4800540;29;20053;-70
2022/11/18 07:26:12;;;;;;;22.85;20.55;;;;;;;;;;4811140;29;20514;-70
2022/11/18 07:28:39;;;;;;;27.58;25.15;;;;;;;;;;4813339;29;20304;-69
2022/11/18 07:31:14;;;;;;;25.73;23.38;;;;;;;;;;4818206;29;20584;-71
2022/11/18 07:33:42;;;;;;;21.75;19.63;;;;;;;;;;4811979;29;20057;-69
2022/11/18 07:36:10;;;;;;;25.42;22.90;;;;;;;;;;4828537;29;20054;-70
2022/11/18 07:38:38;;;;;;;25.17;22.73;;;;;;;;;;4816354;29;20053;-70
2022/11/18 07:41:13;;;;;;;51.00;41.05;;;;;;;;;;4803164;29;20471;-70
2022/11/18 07:43:41;;;;;;;25.60;22.98;;;;;;;;;;4804145;29;20112;-70
2022/11/18 07:46:09;;;;;;;28.55;25.77;;;;;;;;;;4792521;29;20046;-70
2022/11/18 07:48:37;;;;;;;28.67;26.10;;;;;;;;;;4775130;29;20116;-72
2022/11/18 07:51:04;;;;;;;28.23;25.40;;;;;;;;;;4791101;29;20098;-71
2022/11/18 07:53:31;;;;;;;24.38;22.20;;;;;;;;;;4807729;29;20050;-71
2022/11/18 07:55:59;;;;;;;27.40;24.92;;;;;;;;;;4813286;29;20080;-71
2022/11/18 07:58:28;;;;;;;36.67;32.80;;;;;;;;;;4801695;29;20054;-70
2022/11/18 08:00:56;;;;;;;38.60;34.63;;;;;;;;;;4805303;29;20161;-70
2022/11/18 08:03:27;;;;;;;30.83;27.75;;;;;;;;;;4790154;29;20121;-70
2022/11/18 08:06:02;;;;;;;25.75;23.42;;;;;;;;;;4805770;29;20053;-71
2022/11/18 08:08:29;;;;;;;22.73;20.73;;;;;;;;;;4805943;29;20039;-70
2022/11/18 08:10:58;;;;;;;23.92;22.02;;;;;;;;;;4807716;29;20046;-69
2022/11/18 08:13:25;;;;;;;22.35;20.60;;;;;;;;;;4790773;29;20070;-70
2022/11/18 08:15:53;;;;;;;23.02;21.23;;;;;;;;;;4796161;29;20042;-70
2022/11/18 08:18:21;;;;;;;19.95;18.40;;;;;;;;;;4811700;29;20364;-70
2022/11/18 08:20:48;;;;;;;20.85;19.30;;;;;;;;;;4813790;29;20111;-69
2022/11/18 08:23:16;;;;;;;21.35;19.88;;;;;;;;;;4822202;29;20704;-71
2022/11/18 08:25:44;;;;;;;20.52;19.00;;;;;;;;;;4806111;29;20043;-70
2022/11/18 08:28:12;;;;;;;19.75;18.35;;;;;;;;;;4812210;29;20461;-70
2022/11/18 08:30:40;;;;;;;20.77;19.02;;;;;;;;;;4801802;29;20070;-70
2022/11/18 08:33:07;;;;;;;20.30;18.65;;;;;;;;;;4813355;29;20042;-70
2022/11/18 08:35:34;;;;;;;25.00;23.08;;;;;;;;;;4818180;29;20050;-69
2022/11/18 08:38:01;;;;;;;21.95;20.15;;;;;;;;;;4815731;29;20058;-69
2022/11/18 08:40:29;;;;;;;20.10;18.50;;;;;;;;;;4795258;29;20058;-69
2022/11/18 08:42:56;;;;;;;20.58;18.92;;;;;;;;;;4774698;29;20598;-69
2022/11/18 08:45:23;;;;;;;23.33;21.58;;;;;;;;;;4807769;29;20054;-75
2022/11/18 08:47:51;;;;;;;25.27;23.52;;;;;;;;;;4818468;29;20058;-70
2022/11/18 08:50:18;;;;;;;20.73;18.98;;;;;;;;;;4819057;29;20053;-71
2022/11/18 08:52:45;;;;;;;22.95;21.33;;;;;;;;;;4805755;29;20080;-70
2022/11/18 08:55:13;;;;;;;21.38;19.75;;;;;;;;;;4798916;29;20091;-69
2022/11/18 08:57:40;;;;;;;21.88;19.98;;;;;;;;;;4815694;29;20038;-71
2022/11/18 09:00:08;;;;;;;24.13;22.42;;;;;;;;;;4821929;29;20046;-71
2022/11/18 09:02:35;;;;;;;19.38;17.98;;;;;;;;;;4829148;24;20068;-75
2022/11/18 09:05:03;;;;;;;21.85;20.25;;;;;;;;;;4781350;29;20047;-76
2022/11/18 09:07:31;;;;;;;21.73;20.33;;;;;;;;;;4789186;29;20078;-74
2022/11/18 09:09:58;;;;;;;20.45;18.98;;;;;;;;;;4813327;29;20038;-74
2022/11/18 09:12:26;;;;;;;26.30;24.38;;;;;;;;;;4789901;29;20538;-74
2022/11/18 09:14:53;;;;;;;18.17;16.77;;;;;;;;;;4794549;29;20461;-75
2022/11/18 09:17:40;;;;;;;21.05;19.63;;;;;;;;;;4792472;29;20046;-74
2022/11/18 09:20:08;;;;;;;19.80;18.40;;;;;;;;;;4791637;29;20765;-75
2022/11/18 09:22:36;;;;;;;20.27;18.90;;;;;;;;;;4794843;29;20051;-75
2022/11/18 09:25:04;;;;;;;20.58;19.27;;;;;;;;;;4793007;29;20043;-74
2022/11/18 09:27:31;;;;;;;19.98;18.58;;;;;;;;;;4787529;29;20112;-75
2022/11/18 09:29:59;;;;;;;21.75;20.35;;;;;;;;;;4776733;29;20047;-75
2022/11/18 09:32:26;;;;;;;28.13;26.25;;;;;;;;;;4808858;29;20054;-76
2022/11/18 09:34:53;;;;;;;20.67;19.33;;;;;;;;;;4801138;29;20050;-75
2022/11/18 09:37:21;;;;;;;22.90;21.23;;;;;;;;;;4795669;29;20057;-76
2022/11/18 09:39:48;;;;;;;22.27;20.77;;;;;;;;;;4804439;29;20061;-75
2022/11/18 09:42:16;;;;;;;21.70;20.30;;;;;;;;;;4798839;29;20050;-75
2022/11/18 09:45:01;;;;;;;22.92;21.50;;;;;;;;;;4796838;29;20109;-75
2022/11/18 09:47:30;;;;;;;20.00;18.77;;;;;;;;;;4792859;29;20044;-75
2022/11/18 09:50:01;;;;;;;19.25;18.05;;;;;;;;;;4784346;29;20081;-75
2022/11/18 09:53:00;;;;;;;19.02;17.83;;;;;;;;;;4766236;29;20043;-74
2022/11/18 09:55:28;;;;;;;21.75;20.45;;;;;;;;;;4764170;29;20074;-76
2022/11/18 09:57:56;;;;;;;18.58;17.40;;;;;;;;;;4789671;29;20043;-76
2022/11/18 10:00:25;;;;;;;24.67;23.15;;;;;;;;;;4788793;29;21385;-75
2022/11/18 10:03:08;;;;;;;28.35;26.45;;;;;;;;;;4780675;29;20067;-75
2022/11/18 10:05:38;;;;;;;19.98;18.73;;;;;;;;;;4782233;29;20047;-75
2022/11/18 10:08:26;;;;;;;18.95;17.77;;;;;;;;;;4788255;29;20076;-75
2022/11/18 10:10:55;;;;;;;16.38;15.27;;;;;;;;;;4784354;29;20369;-75
2022/11/18 10:13:32;;;;;;;20.38;19.10;;;;;;;;;;4760644;29;20496;-76
2022/11/18 10:15:59;;;;;;;23.55;22.05;;;;;;;;;;4782627;29;20047;-75
2022/11/18 10:18:41;;;;;;;19.98;18.73;;;;;;;;;;4770425;29;21070;-75
2022/11/18 10:21:33;;;;;;;18.30;17.17;;;;;;;;;;4782896;29;20075;-75
2022/11/18 10:24:10;;;;;;;22.25;21.00;;;;;;;;;;4774460;29;20293;-75
2022/11/18 10:26:38;;;;;;;19.80;18.50;;;;;;;;;;4782091;29;20133;-75
2022/11/18 10:29:09;;;;;;;29.25;27.45;;;;;;;;;;4788106;29;20039;-75
2022/11/18 10:31:51;;;;;;;21.65;20.40;;;;;;;;;;4779641;29;20079;-75
2022/11/18 10:34:19;;;;;;;22.73;21.10;;;;;;;;;;4788183;29;20375;-76
2022/11/18 10:37:02;;;;;;;23.17;21.73;;;;;;;;;;4767747;29;20330;-75
2022/11/18 10:39:30;;;;;;;18.98;17.83;;;;;;;;;;4763379;29;20086;-75
2022/11/18 10:42:03;;;;;;;28.52;26.83;;;;;;;;;;4765451;29;20047;-76
2022/11/18 10:44:33;;;;;;;25.08;23.55;;;;;;;;;;4778464;29;20110;-75
2022/11/18 10:47:22;;;;;;;25.38;23.88;;;;;;;;;;4777094;29;20097;-75
2022/11/18 10:49:50;;;;;;;22.20;20.83;;;;;;;;;;4782555;29;20073;-75
2022/11/18 10:52:17;;;;;;;17.90;16.77;;;;;;;;;;4783113;29;20108;-76
2022/11/18 10:54:45;;;;;;;21.38;19.90;;;;;;;;;;4787099;29;20143;-75
2022/11/18 10:57:15;;;;;;;21.98;20.83;;;;;;;;;;4785259;29;20082;-75
2022/11/18 10:59:52;;;;;;;16.23;15.32;;;;;;;;;;4767683;29;20062;-75
2022/11/18 11:02:31;;;;;;;18.25;17.20;;;;;;;;;;4777381;29;20579;-75
2022/11/18 11:05:01;;;;;;;16.90;16.00;;;;;;;;;;4776796;29;20047;-74
2022/11/18 11:07:32;;;;;;;22.40;20.98;;;;;;;;;;4793275;29;20043;-74
2022/11/18 11:10:00;;;;;;;25.60;23.92;;;;;;;;;;4786408;29;20079;-74
2022/11/18 11:12:31;;;;;;;19.30;18.10;;;;;;;;;;4773347;29;20047;-75
2022/11/18 11:15:01;;;;;;;24.88;23.30;;;;;;;;;;4770695;29;20445;-75
2022/11/18 11:17:32;;;;;;;17.88;16.80;;;;;;;;;;4786815;29;20389;-76
2022/11/18 11:20:18;;;;;;;19.50;18.20;;;;;;;;;;4789058;29;20051;-75
2022/11/18 11:22:46;;;;;;;22.25;20.75;;;;;;;;;;4787232;29;20047;-76
2022/11/18 11:25:15;;;;;;;20.83;19.58;;;;;;;;;;4787903;29;20079;-76
2022/11/18 11:27:42;;;;;;;18.10;17.10;;;;;;;;;;4789013;29;20079;-76
2022/11/18 11:30:33;;;;;;;14.88;14.07;;;;;;;;;;4770204;29;20118;-75
2022/11/18 11:33:10;;;;;;;25.60;24.05;;;;;;;;;;4770051;29;20465;-75
2022/11/18 11:35:38;;;;;;;11.65;11.10;;;;;;;;;;4785475;29;20400;-74
2022/11/18 11:38:25;;;;;;;18.88;17.83;;;;;;;;;;4799788;29;20051;-75
2022/11/18 11:40:59;;;;;;;16.30;15.38;;;;;;;;;;4789864;29;20210;-75
2022/11/18 11:43:44;;;;;;;17.33;16.38;;;;;;;;;;4781774;29;20486;-75
2022/11/18 11:46:21;;;;;;;12.25;11.65;;;;;;;;;;4785438;29;20074;-76
2022/11/18 11:48:53;;;;;;;13.98;13.07;;;;;;;;;;4795348;29;20054;-75
2022/11/18 11:51:32;;;;;;;21.45;20.17;;;;;;;;;;4787897;29;20549;-75
2022/11/18 11:54:18;;;;;;;21.33;19.92;;;;;;;;;;4804261;29;20062;-76
2022/11/18 11:57:01;;;;;;;18.60;17.52;;;;;;;;;;4804491;29;20070;-76
2022/11/18 11:59:29;;;;;;;14.65;13.88;;;;;;;;;;4799477;29;20043;-75
2022/11/18 12:01:56;;;;;;;22.77;21.38;;;;;;;;;;4786640;29;20082;-76
2022/11/18 12:04:31;;;;;;;17.52;16.63;;;;;;;;;;4796470;29;20059;-76
2022/11/18 12:06:59;;;;;;;16.50;15.65;;;;;;;;;;4803474;29;20533;-75
2022/11/18 12:09:33;;;;;;;23.35;22.02;;;;;;;;;;4789335;29;20074;-75
2022/11/18 12:12:00;;;;;;;38.95;36.72;;;;;;;;;;4805399;29;20055;-76
2022/11/18 12:14:36;;;;;;;20.48;19.35;;;;;;;;;;4806098;29;20419;-76
2022/11/18 12:17:18;;;;;;;25.17;23.58;;;;;;;;;;4804831;29;20311;-75
2022/11/18 12:19:45;;;;;;;17.85;16.85;;;;;;;;;;4790552;29;20533;-76
2022/11/18 12:22:13;;;;;;;21.48;20.23;;;;;;;;;;4805774;29;20123;-76
2022/11/18 12:24:42;;;;;;;20.38;19.20;;;;;;;;;;4789572;29;20050;-76
2022/11/18 12:27:09;;;;;;;19.10;18.00;;;;;;;;;;4805623;29;20051;-76
2022/11/18 12:29:36;;;;;;;18.95;17.77;;;;;;;;;;4789023;29;20053;-75
2022/11/18 12:32:14;;;;;;;16.83;15.93;;;;;;;;;;4784868;29;20070;-76
2022/11/18 12:34:43;;;;;;;16.70;15.80;;;;;;;;;;4789292;29;20411;-75
2022/11/18 12:37:23;;;;;;;18.13;17.08;;;;;;;;;;4774382;29;20047;-76
2022/11/18 12:39:57;;;;;;;18.67;17.67;;;;;;;;;;4805008;29;20070;-75
2022/11/18 12:45:46;;;;;;;15.88;14.82;;;;;;;;;;4786083;29;20046;-76
2022/11/18 12:48:23;;;;;;;16.15;15.25;;;;;;;;;;4805346;29;20079;-76
2022/11/18 12:50:58;;;;;;;20.38;19.08;;;;;;;;;;4803621;29;20058;-76
2022/11/18 12:53:35;;;;;;;36.65;34.42;;;;;;;;;;4789415;29;20511;-77
2022/11/18 12:56:17;;;;;;;14.35;13.55;;;;;;;;;;4803609;29;20051;-76
2022/11/18 12:58:48;;;;;;;11.98;11.35;;;;;;;;;;4800579;29;20408;-76
2022/11/18 13:01:17;;;;;;;13.75;12.95;;;;;;;;;;4798747;29;20039;-76
2022/11/18 13:03:44;;;;;;;10.75;10.23;;;;;;;;;;4768203;30;20141;-75
2022/11/18 13:06:18;;;;;;;17.48;16.58;;;;;;;;;;4783102;30;20136;-76
2022/11/18 13:08:50;;;;;;;15.93;15.07;;;;;;;;;;4785578;29;20500;-77
2022/11/18 13:19:37;;;;;;;14.13;13.13;;;;;;;;;;4789278;29;20066;-75
2022/11/18 13:25:02;;;;;;;28.02;26.17;;;;;;;;;;4770145;29;20043;-75
2022/11/18 13:27:47;;;;;;;43.92;40.83;;;;;;;;;;4784612;29;20057;-75
2022/11/18 13:30:15;;;;;;;14.35;13.55;;;;;;;;;;4767022;29;20118;-75
2022/11/18 13:32:46;;;;;;;24.02;22.55;;;;;;;;;;4768528;29;20061;-74
2022/11/18 13:35:18;;;;;;;15.38;14.50;;;;;;;;;;4800119;29;20054;-75
2022/11/18 13:37:45;;;;;;;;;;;;;;;;;;4800593;29;20051;-75
2022/11/18 13:40:35;;;;;;;9.73;9.13;;;;;;;;;;4800037;29;19929;-76
2022/11/18 13:43:03;;;;;;;8.32;7.88;;;;;;;;;;4782643;29;20532;-75
2022/11/18 13:45:30;;;;;;;9.60;9.10;;;;;;;;;;4791706;29;20051;-76
2022/11/18 13:48:16;;;;;;;10.93;10.23;;;;;;;;;;4808769;29;20096;-75
2022/11/18 13:50:50;;;;;;;14.68;13.88;;;;;;;;;;4799479;29;20047;-76
2022/11/18 13:53:23;;;;;;;13.88;13.15;;;;;;;;;;4776389;29;20505;-75
2022/11/18 13:56:02;;;;;;;9.30;8.82;;;;;;;;;;4796968;29;20043;-76
2022/11/18 13:58:30;;;;;;;13.88;13.07;;;;;;;;;;4802731;29;20046;-75
2022/11/18 14:01:14;;;;;;;14.32;13.55;;;;;;;;;;4804532;29;20484;-76
2022/11/18 14:03:45;;;;;;;12.00;11.40;;;;;;;;;;4801747;29;20058;-75
2022/11/18 14:06:23;;;;;;;12.70;11.95;;;;;;;;;;4818899;29;20047;-74
2022/11/18 14:08:51;;;;;;;15.65;14.57;;;;;;;;;;4819504;29;20060;-74
2022/11/18 14:11:35;;;;;;;18.67;17.60;;;;;;;;;;4819212;29;20058;-75
2022/11/18 14:14:02;;;;;;;11.48;10.80;;;;;;;;;;4806315;29;20063;-74
2022/11/18 14:16:31;;;;;;;26.67;25.15;;;;;;;;;;4811623;29;20061;-74
2022/11/18 14:18:59;;;;;;;21.42;19.92;;;;;;;;;;4802553;29;20070;-75
2022/11/18 14:21:31;;;;;;;15.30;14.48;;;;;;;;;;4783436;30;20463;-75
2022/11/18 14:23:58;;;;;;;18.83;17.63;;;;;;;;;;4787227;30;20069;-75
2022/11/18 14:26:29;;;;;;;14.95;14.13;;;;;;;;;;4787368;30;20100;-76
2022/11/18 14:28:58;;;;;;;16.77;15.88;;;;;;;;;;4786665;30;20055;-76
2022/11/18 14:31:27;;;;;;;16.00;15.10;;;;;;;;;;4793382;29;20499;-75
2022/11/18 14:34:07;;;;;;;16.23;15.15;;;;;;;;;;4800746;29;20078;-76
2022/11/18 14:36:34;;;;;;;17.85;16.42;;;;;;;;;;4769783;30;20271;-76
2022/11/18 14:39:11;;;;;;;13.57;12.88;;;;;;;;;;4782607;29;20047;-76
2022/11/18 14:41:53;;;;;;;13.75;13.07;;;;;;;;;;4770988;30;20063;-77
2022/11/18 14:44:21;;;;;;;16.80;15.88;;;;;;;;;;4767831;30;20055;-77
2022/11/18 14:46:59;;;;;;;13.90;13.15;;;;;;;;;;4782915;30;20054;-75
2022/11/18 14:49:28;;;;;;;15.50;14.52;;;;;;;;;;4792002;29;20127;-76
2022/11/18 14:51:56;;;;;;;13.15;12.38;;;;;;;;;;4776468;29;20055;-75
2022/11/18 14:54:24;;;;;;;15.38;14.55;;;;;;;;;;4800400;29;20051;-76
2022/11/18 14:56:55;;;;;;;15.70;14.70;;;;;;;;;;4761405;29;20081;-75
2022/11/18 14:59:23;;;;;;;18.40;17.45;;;;;;;;;;4792752;29;20058;-75
2022/11/18 15:01:50;;;;;;;16.27;15.40;;;;;;;;;;4826480;24;20058;-78
2022/11/18 15:04:19;;;;;;;15.00;14.20;;;;;;;;;;4815955;29;20061;-81
2022/11/18 15:06:47;;;;;;;17.98;16.98;;;;;;;;;;4824594;29;20488;-82
2022/11/18 15:09:15;;;;;;;14.90;14.10;;;;;;;;;;4827417;29;20054;-76
2022/11/18 15:11:43;;;;;;;17.95;16.98;;;;;;;;;;4807770;29;20085;-80